Time;durP1;ratioP1;P1;durP2;ratioP2;P2;SDS_P1;SDS_P2;PMS_P1;PMS_P2;Temp;Humidity;BMP_temperature;BMP_pressure;BME280_temperature;BME280_humidity;BME280_pressure;Samples;Min_cycle;Max_cycle;Signal;HPM_P1;HPM_P2
2021/10/22 00:00:39;;;;;;;14.60;9.08;;;;;;;14.48;55.81;99033.82;1627592;86;21082;-74
2021/10/22 00:03:06;;;;;;;15.60;8.48;;;;;;;14.51;55.73;99029.27;1629558;88;21144;-73
2021/10/22 00:05:33;;;;;;;18.10;8.10;;;;;;;14.51;55.46;99022.16;1626751;86;21129;-74
2021/10/22 00:08:00;;;;;;;14.65;7.92;;;;;;;14.55;54.98;99033.43;1608145;87;21226;-73
2021/10/22 00:10:27;;;;;;;14.83;8.25;;;;;;;14.56;54.91;99029.81;1629076;86;21105;-73
2021/10/22 00:12:55;;;;;;;21.90;8.35;;;;;;;14.59;55.18;99029.61;1624138;86;21604;-73
2021/10/22 00:15:23;;;;;;;14.60;7.85;;;;;;;14.61;55.61;99025.89;1630593;84;21163;-72
2021/10/22 00:17:51;;;;;;;15.75;7.87;;;;;;;14.62;56.22;99030.71;1626021;86;21120;-73
2021/10/22 00:20:19;;;;;;;16.42;7.85;;;;;;;14.64;56.25;99027.48;1624721;86;21058;-73
2021/10/22 00:22:46;;;;;;;22.05;7.97;;;;;;;14.64;55.51;99030.12;1628000;86;21403;-72
2021/10/22 00:25:12;;;;;;;12.60;7.62;;;;;;;14.67;56.73;99039.17;1624613;88;21081;-74
2021/10/22 00:27:38;;;;;;;14.53;6.87;;;;;;;14.68;55.51;99034.26;1624510;88;21513;-73
2021/10/22 00:30:06;;;;;;;17.82;7.03;;;;;;;14.69;56.70;99030.16;1626813;86;21575;-75
2021/10/22 00:32:33;;;;;;;13.85;7.33;;;;;;;14.72;56.91;99029.08;1628542;88;21512;-73
2021/10/22 00:35:00;;;;;;;11.93;7.20;;;;;;;14.73;57.19;99018.03;1653325;86;21026;-75
2021/10/22 00:37:27;;;;;;;16.23;7.37;;;;;;;14.73;56.80;99021.52;1632496;86;21089;-75
2021/10/22 00:39:54;;;;;;;16.30;7.10;;;;;;;14.73;55.54;99021.52;1624800;86;21129;-73
2021/10/22 00:42:22;;;;;;;15.50;6.92;;;;;;;14.74;55.21;99016.57;1626167;86;21096;-75
2021/10/22 00:44:49;;;;;;;9.85;6.50;;;;;;;14.75;55.40;99023.59;1627837;86;21073;-75
2021/10/22 00:47:16;;;;;;;13.13;7.10;;;;;;;14.78;55.08;99027.33;1628414;86;21062;-76
2021/10/22 00:49:43;;;;;;;11.10;6.10;;;;;;;14.78;55.37;99023.84;1628842;88;21028;-73
2021/10/22 00:52:09;;;;;;;13.98;7.05;;;;;;;14.79;55.07;99019.77;1628586;88;21164;-74
2021/10/22 00:54:36;;;;;;;14.65;7.12;;;;;;;14.78;54.97;99015.89;1628851;86;21054;-73
2021/10/22 00:57:03;;;;;;;12.43;6.90;;;;;;;14.79;55.14;99018.44;1628526;86;21053;-74
2021/10/22 00:59:32;;;;;;;15.18;6.90;;;;;;;14.79;55.16;99019.77;1626540;86;21108;-73
2021/10/22 01:01:59;;;;;;;9.75;6.17;;;;;;;14.77;55.54;99015.05;1601188;88;21155;-74
2021/10/22 01:04:26;;;;;;;10.40;6.05;;;;;;;14.76;56.00;99015.98;1626383;86;21567;-74
2021/10/22 01:06:52;;;;;;;11.57;5.97;;;;;;;14.77;55.55;99012.40;1622712;87;21157;-74
2021/10/22 01:09:19;;;;;;;14.13;6.42;;;;;;;14.77;55.70;99007.09;1626214;87;21102;-75
2021/10/22 01:11:46;;;;;;;14.78;6.50;;;;;;;14.80;56.42;99009.52;1626838;83;21089;-73
2021/10/22 01:14:14;;;;;;;12.93;5.83;;;;;;;14.80;57.02;99006.86;1625582;87;21034;-73
2021/10/22 01:16:41;;;;;;;12.03;6.42;;;;;;;14.80;56.35;99014.81;1627246;86;21488;-73
2021/10/22 01:19:16;;;;;;;12.65;6.33;;;;;;;14.82;57.55;99020.86;1626958;87;21088;-74
2021/10/22 01:21:48;;;;;;;8.70;6.03;;;;;;;14.82;57.59;99026.16;1626231;86;21606;-74
2021/10/22 01:24:18;;;;;;;11.88;6.10;;;;;;;14.82;55.86;99036.76;1624843;86;21110;-73
2021/10/22 01:26:44;;;;;;;10.90;5.72;;;;;;;14.80;55.75;99038.67;1623170;88;21053;-72
2021/10/22 01:29:11;;;;;;;14.25;6.08;;;;;;;14.80;55.51;99036.02;1623387;87;22133;-72
2021/10/22 01:31:38;;;;;;;13.85;6.15;;;;;;;14.79;55.33;99036.99;1621890;86;21157;-72
2021/10/22 01:34:05;;;;;;;13.38;6.15;;;;;;;14.79;55.38;99047.59;1622930;88;21608;-72
2021/10/22 01:36:33;;;;;;;12.37;6.22;;;;;;;14.79;55.22;99044.94;1622500;87;21152;-72
2021/10/22 01:39:03;;;;;;;13.53;5.72;;;;;;;14.80;55.26;99061.69;1630615;86;22255;-75
2021/10/22 01:41:29;;;;;;;18.05;5.90;;;;;;;14.78;55.10;99064.44;1631420;86;21191;-75
2021/10/22 01:44:00;;;;;;;14.68;5.90;;;;;;;14.78;55.50;99064.44;1626050;86;21608;-74
2021/10/22 01:46:25;;;;;;;12.40;5.67;;;;;;;14.79;55.92;99059.52;1614686;86;21050;-72
2021/10/22 01:48:52;;;;;;;10.93;5.00;;;;;;;14.80;56.75;99061.69;1649488;86;21059;-74
2021/10/22 01:51:19;;;;;;;13.78;5.80;;;;;;;14.78;56.92;99059.13;1624458;86;21144;-74
2021/10/22 01:53:46;;;;;;;10.38;5.60;;;;;;;14.77;57.69;99062.75;1622539;87;21518;-74
2021/10/22 01:56:13;;;;;;;9.15;4.97;;;;;;;14.76;56.87;99059.72;1626508;88;21087;-74
2021/10/22 01:58:39;;;;;;;10.98;5.45;;;;;;;14.77;56.84;99068.05;1631953;88;21011;-76
2021/10/22 02:01:07;;;;;;;15.98;4.80;;;;;;;14.77;57.77;99065.41;1628698;85;21691;-76
2021/10/22 02:03:35;;;;;;;11.05;5.53;;;;;;;14.78;56.21;99072.38;1629257;86;21088;-76
2021/10/22 02:06:01;;;;;;;9.48;5.10;;;;;;;14.80;55.95;99074.45;1625345;86;21626;-74
2021/10/22 02:08:28;;;;;;;8.68;5.47;;;;;;;14.83;55.88;99081.33;1625330;86;21077;-75
2021/10/22 02:10:55;;;;;;;12.50;4.95;;;;;;;14.82;55.04;99079.66;1634934;86;21178;-73
2021/10/22 02:13:21;;;;;;;7.90;5.33;;;;;;;14.81;55.00;99084.08;1629246;86;21081;-74
2021/10/22 02:15:48;;;;;;;10.53;5.62;;;;;;;14.81;54.41;99085.89;1624251;86;21092;-75
2021/10/22 02:18:15;;;;;;;12.82;5.60;;;;;;;14.82;54.61;99095.07;1624411;88;21999;-75
2021/10/22 02:20:41;;;;;;;13.80;5.65;;;;;;;14.81;54.41;99092.03;1627073;86;21069;-74
2021/10/22 02:23:08;;;;;;;9.58;5.80;;;;;;;14.82;54.07;99108.32;1624438;86;21119;-72
2021/10/22 02:25:34;;;;;;;13.65;5.87;;;;;;;14.81;53.94;99106.61;1628945;86;21046;-72
2021/10/22 02:28:01;;;;;;;14.45;4.60;;;;;;;14.81;53.93;99103.96;1632690;86;21133;-73
2021/10/22 02:30:27;;;;;;;8.60;4.67;;;;;;;14.80;53.48;99108.06;1629939;88;21139;-71
2021/10/22 02:32:54;;;;;;;11.53;4.72;;;;;;;14.80;53.54;99115.53;1629693;88;21061;-71
2021/10/22 02:35:21;;;;;;;9.43;4.55;;;;;;;14.83;53.75;99119.28;1629982;88;21125;-72
2021/10/22 02:37:48;;;;;;;7.47;4.60;;;;;;;14.83;54.07;99119.77;1630404;88;21500;-74
2021/10/22 02:40:15;;;;;;;8.75;4.47;;;;;;;14.81;53.74;99125.16;1630196;88;21145;-71
2021/10/22 02:42:42;;;;;;;10.50;4.30;;;;;;;14.79;54.74;99124.45;1629844;88;21146;-72
2021/10/22 02:45:09;;;;;;;8.90;4.08;;;;;;;14.78;54.73;99118.77;1630086;88;21655;-73
2021/10/22 02:47:36;;;;;;;7.92;3.83;;;;;;;14.76;52.75;99124.64;1627851;86;21101;-73
2021/10/22 02:50:04;;;;;;;8.90;3.90;;;;;;;14.76;54.34;99140.55;1624659;88;21109;-73
2021/10/22 02:52:30;;;;;;;9.95;3.52;;;;;;;14.71;54.71;99141.36;1636998;86;21176;-72
2021/10/22 02:54:57;;;;;;;8.40;4.37;;;;;;;14.67;54.33;99142.03;1630046;88;21177;-73
2021/10/22 02:57:24;;;;;;;7.95;4.50;;;;;;;14.61;52.90;99147.78;1626147;88;21090;-72
2021/10/22 02:59:50;;;;;;;10.93;4.08;;;;;;;14.58;54.67;99148.45;1624667;88;21146;-73
2021/10/22 03:02:18;;;;;;;9.58;4.08;;;;;;;14.52;52.49;99150.19;1618864;88;21141;-73
2021/10/22 03:04:45;;;;;;;12.05;4.35;;;;;;;14.43;52.06;99152.50;1620445;87;21089;-73
2021/10/22 03:07:11;;;;;;;6.03;3.55;;;;;;;14.42;52.25;99157.90;1618742;88;21592;-74
2021/10/22 03:09:39;;;;;;;7.05;4.00;;;;;;;14.35;52.06;99165.41;1618796;88;21585;-74
2021/10/22 03:12:06;;;;;;;14.23;3.90;;;;;;;14.29;52.34;99171.14;1618682;87;21035;-73
2021/10/22 03:14:42;;;;;;;6.78;4.03;;;;;;;14.21;51.70;99172.13;1617576;88;21217;-72
2021/10/22 03:17:10;;;;;;;12.40;3.80;;;;;;;14.17;51.66;99177.24;1593025;89;21114;-74
2021/10/22 03:19:37;;;;;;;11.80;3.60;;;;;;;14.14;52.11;99178.78;1601410;87;21148;-74
2021/10/22 03:22:03;;;;;;;5.85;3.40;;;;;;;14.10;53.06;99181.25;1631263;87;21052;-73
2021/10/22 03:24:30;;;;;;;6.22;3.02;;;;;;;14.06;53.67;99186.77;1632301;87;21065;-73
2021/10/22 03:26:56;;;;;;;11.20;3.08;;;;;;;14.00;53.27;99188.48;1631325;87;21504;-74
2021/10/22 03:29:23;;;;;;;8.98;3.40;;;;;;;13.96;55.43;99196.73;1623616;87;21110;-74
2021/10/22 03:31:49;;;;;;;7.58;2.87;;;;;;;13.92;53.77;99200.07;1626637;88;21503;-73
2021/10/22 03:34:16;;;;;;;10.63;3.52;;;;;;;13.88;54.17;99185.33;1629723;87;21058;-74
2021/10/22 03:36:42;;;;;;;5.37;2.55;;;;;;;13.87;54.54;99194.20;1630775;88;21053;-75
2021/10/22 03:39:09;;;;;;;10.23;3.20;;;;;;;13.82;55.30;99192.34;1631302;87;21592;-74
2021/10/22 03:41:35;;;;;;;7.35;3.22;;;;;;;13.80;56.21;99200.85;1631076;86;21084;-75
2021/10/22 03:44:02;;;;;;;7.95;3.20;;;;;;;13.74;53.58;99199.95;1631337;86;21520;-73
2021/10/22 03:46:29;;;;;;;9.40;3.90;;;;;;;13.74;55.84;99207.89;1629677;87;21164;-76
2021/10/22 03:48:55;;;;;;;7.17;3.70;;;;;;;13.70;56.07;99197.96;1631753;87;21090;-77
2021/10/22 03:51:22;;;;;;;7.00;3.77;;;;;;;13.66;54.65;99201.75;1626923;86;21608;-77
2021/10/22 03:53:50;;;;;;;8.48;3.30;;;;;;;13.60;54.42;99203.00;1626345;88;21109;-75
2021/10/22 03:56:16;;;;;;;10.88;3.72;;;;;;;13.57;54.17;99215.56;1619393;86;21055;-76
2021/10/22 03:58:42;;;;;;;11.65;4.40;;;;;;;13.55;54.41;99215.69;1620661;88;21565;-77
2021/10/22 04:01:09;;;;;;;9.90;3.47;;;;;;;13.54;54.55;99221.91;1647558;86;21085;-77
2021/10/22 04:03:36;;;;;;;13.20;3.58;;;;;;;13.52;53.18;99221.14;1633641;86;21217;-76
2021/10/22 04:06:02;;;;;;;5.95;2.90;;;;;;;13.54;53.23;99236.45;1626034;86;21151;-76
2021/10/22 04:08:29;;;;;;;7.58;3.35;;;;;;;13.54;52.78;99240.90;1624110;88;21093;-76
2021/10/22 04:10:56;;;;;;;5.53;3.12;;;;;;;13.53;52.92;99244.02;1624809;86;21264;-76
2021/10/22 04:13:22;;;;;;;12.13;3.22;;;;;;;13.54;52.92;99244.87;1624003;88;21071;-77
2021/10/22 04:15:49;;;;;;;10.55;3.15;;;;;;;13.53;52.85;99241.38;1627509;85;21122;-77
2021/10/22 04:18:15;;;;;;;11.40;2.45;;;;;;;13.50;53.31;99240.23;1637485;86;21058;-78
2021/10/22 04:20:42;;;;;;;8.88;2.83;;;;;;;13.48;53.82;99246.12;1630866;86;21442;-78
2021/10/22 04:23:09;;;;;;;9.23;2.80;;;;;;;13.44;53.57;99249.89;1630108;88;21217;-78
2021/10/22 04:25:36;;;;;;;9.88;2.83;;;;;;;13.42;53.50;99257.07;1629174;86;21034;-77
2021/10/22 04:28:04;;;;;;;13.98;2.83;;;;;;;13.39;53.13;99262.56;1628833;88;21045;-77
2021/10/22 04:30:30;;;;;;;10.80;2.80;;;;;;;13.35;54.39;99264.53;1612094;87;21062;-77
2021/10/22 04:32:57;;;;;;;10.00;2.52;;;;;;;13.32;53.12;99267.83;1630130;88;21110;-73
2021/10/22 04:35:24;;;;;;;8.90;2.47;;;;;;;13.29;52.40;99268.03;1628205;86;21046;-76
2021/10/22 04:38:02;;;;;;;8.88;2.40;;;;;;;13.26;52.69;99265.55;1630018;86;21045;-76
2021/10/22 04:40:31;;;;;;;5.28;2.33;;;;;;;13.22;53.22;99277.63;1628390;86;21037;-73
2021/10/22 04:43:08;;;;;;;8.60;2.70;;;;;;;13.18;52.80;99272.61;1628149;86;21069;-73
2021/10/22 04:48:20;;;;;;;10.03;2.77;;;;;;;13.13;53.09;99279.98;1805104;78;22791;-72
2021/10/22 04:50:53;;;;;;;6.60;1.90;;;;;;;13.03;54.40;99284.14;1750460;80;22102;-70
2021/10/22 04:53:22;;;;;;;;;;;;;;;12.99;54.21;99272.89;1729973;81;21123;-72
2021/10/22 04:55:49;;;;;;;8.13;2.62;;;;;;;12.95;55.24;99280.62;1712503;81;20155;-73
2021/10/22 04:58:16;;;;;;;14.83;3.10;;;;;;;12.90;56.23;99284.86;1700132;83;21113;-82
2021/10/22 05:00:44;;;;;;;10.05;2.72;;;;;;;12.87;56.49;99300.06;1681296;83;21080;-77
2021/10/22 05:03:11;;;;;;;6.47;2.40;;;;;;;12.82;57.15;99297.70;1691777;84;21012;-77
2021/10/22 05:05:38;;;;;;;9.30;2.80;;;;;;;12.80;56.52;99311.47;1697639;83;22093;-77
2021/10/22 05:08:05;;;;;;;6.35;2.70;;;;;;;12.79;57.39;99313.27;1692402;83;21548;-76
2021/10/22 05:10:32;;;;;;;9.75;2.80;;;;;;;12.77;56.32;99324.39;1667473;83;21054;-77
2021/10/22 05:12:59;;;;;;;8.33;2.72;;;;;;;12.79;57.35;99343.66;1692703;83;21547;-77
2021/10/22 05:15:26;;;;;;;10.00;2.85;;;;;;;12.79;56.16;99338.37;1691602;83;21140;-77
2021/10/22 05:17:53;;;;;;;7.75;3.08;;;;;;;12.82;56.02;99335.17;1718886;81;21114;-77
2021/10/22 05:20:19;;;;;;;9.03;3.40;;;;;;;12.84;55.40;99339.86;1712470;81;21144;-78
2021/10/22 05:22:46;;;;;;;10.70;3.30;;;;;;;12.88;54.91;99337.43;1724801;83;21637;-78
2021/10/22 05:25:13;;;;;;;13.65;3.60;;;;;;;12.94;55.90;99341.04;1715928;81;21023;-76
2021/10/22 05:27:40;;;;;;;8.55;3.37;;;;;;;12.97;55.24;99343.49;1698621;81;21697;-77
2021/10/22 05:30:08;;;;;;;6.78;3.15;;;;;;;13.01;55.32;99350.30;1694087;83;21090;-78
2021/10/22 05:32:35;;;;;;;11.48;3.05;;;;;;;13.02;54.44;99358.59;1700450;81;21100;-78
2021/10/22 05:35:04;;;;;;;8.58;3.10;;;;;;;13.05;55.71;99357.11;1699036;83;21651;-76
2021/10/22 05:37:31;;;;;;;5.10;2.65;;;;;;;13.11;55.04;99355.88;1698943;83;21571;-78
2021/10/22 05:39:58;;;;;;;6.90;2.98;;;;;;;13.21;54.82;99359.22;1693746;83;21080;-78
2021/10/22 05:42:25;;;;;;;6.95;2.67;;;;;;;13.45;55.98;99363.98;1693860;83;21139;-78
2021/10/22 05:44:51;;;;;;;10.10;3.05;;;;;;;13.80;55.17;99362.27;1683531;83;21080;-78
2021/10/22 05:47:18;;;;;;;13.20;3.37;;;;;;;14.25;53.58;99365.13;1696579;83;21101;-78
2021/10/22 05:49:45;;;;;;;11.75;3.10;;;;;;;14.65;53.93;99365.23;1705204;83;21125;-76
2021/10/22 05:52:12;;;;;;;12.23;3.25;;;;;;;14.96;52.60;99371.62;1693257;83;21117;-77
2021/10/22 05:54:39;;;;;;;8.18;3.27;;;;;;;15.33;49.51;99371.28;1700093;83;22218;-78
2021/10/22 05:57:06;;;;;;;18.32;3.40;;;;;;;15.54;48.35;99372.92;1685865;83;21101;-77
2021/10/22 05:59:33;;;;;;;12.45;3.40;;;;;;;15.89;47.55;99381.09;1691588;83;21136;-78
2021/10/22 06:02:00;;;;;;;9.98;3.50;;;;;;;16.35;46.53;99375.61;1685484;83;21101;-78
2021/10/22 06:04:30;;;;;;;10.10;3.37;;;;;;;16.83;45.00;99368.98;1702641;83;21122;-77
2021/10/22 06:06:57;;;;;;;11.68;3.00;;;;;;;17.29;44.08;99370.81;1678633;84;21178;-78
2021/10/22 06:09:23;;;;;;;14.55;3.20;;;;;;;17.82;42.71;99379.11;1693350;83;21077;-78
2021/10/22 06:11:52;;;;;;;8.50;3.75;;;;;;;18.38;41.22;99370.22;1685397;85;21143;-79
2021/10/22 06:14:19;;;;;;;11.10;3.00;;;;;;;18.80;39.99;99357.50;1685224;83;21080;-79
2021/10/22 06:16:45;;;;;;;6.42;2.65;;;;;;;19.34;38.66;99371.64;1685649;85;21077;-78
2021/10/22 06:19:25;;;;;;;8.38;2.35;;;;;;;19.79;37.10;99370.86;1696438;83;21644;-78
2021/10/22 06:22:11;;;;;;;6.03;2.30;;;;;;;20.20;36.18;99360.14;1697005;83;21068;-78
2021/10/22 06:24:34;;;;;;;8.55;2.02;;;;;;;20.52;35.88;99369.28;1696314;83;21152;-79
2021/10/22 06:27:00;;;;;;;7.55;2.10;;;;;;;20.66;35.63;99374.27;1706362;82;21188;-79
2021/10/22 06:29:27;;;;;;;7.15;2.10;;;;;;;20.93;35.40;99370.03;1713004;82;21055;-78
2021/10/22 06:31:53;;;;;;;3.30;1.50;;;;;;;20.51;34.33;99383.64;1711992;82;21626;-80
2021/10/22 06:34:23;;;;;;;7.33;1.32;;;;;;;20.34;33.78;99389.19;1700412;82;21071;-79
2021/10/22 06:36:48;;;;;;;4.67;1.22;;;;;;;20.12;32.33;99388.41;1717021;82;21039;-78
2021/10/22 06:39:16;;;;;;;11.33;1.40;;;;;;;19.78;32.71;99379.83;1709583;82;21095;-79
2021/10/22 06:41:44;;;;;;;2.98;1.27;;;;;;;19.39;33.09;99380.93;1703500;82;21545;-79
2021/10/22 06:44:17;;;;;;;7.60;1.55;;;;;;;19.37;33.44;99389.59;1708421;82;21107;-77
2021/10/22 06:46:45;;;;;;;7.90;1.50;;;;;;;19.63;33.27;99394.52;1708636;83;21083;-80
2021/10/22 06:49:13;;;;;;;10.45;1.62;;;;;;;20.11;32.94;99399.25;1678571;83;21077;-78
2021/10/22 06:51:39;;;;;;;7.25;1.60;;;;;;;20.45;32.06;99393.55;1673854;83;21534;-79
2021/10/22 06:54:07;;;;;;;6.62;1.80;;;;;;;20.80;32.29;99392.21;1676441;83;21072;-79
2021/10/22 06:56:34;;;;;;;7.37;1.37;;;;;;;21.16;31.63;99386.17;1689268;83;21071;-79
2021/10/22 06:59:01;;;;;;;9.93;2.50;;;;;;;21.50;30.97;99378.16;1690526;83;21051;-78
2021/10/22 07:01:28;;;;;;;8.00;1.80;;;;;;;21.80;31.01;99389.13;1669023;83;21110;-82
2021/10/22 07:03:54;;;;;;;6.65;1.32;;;;;;;22.05;30.95;99378.73;1668887;84;21055;-78
2021/10/22 07:09:05;;;;;;;6.85;2.50;;;;;;;22.47;30.11;99379.58;1685359;85;22486;-79
2021/10/22 07:11:33;;;;;;;10.98;1.80;;;;;;;22.62;30.24;99379.42;1701179;83;21103;-77
2021/10/22 07:14:00;;;;;;;12.20;2.90;;;;;;;22.67;30.31;99378.45;1694694;83;22259;-78
2021/10/22 07:16:27;;;;;;;11.18;1.98;;;;;;;22.62;30.67;99383.44;1708902;83;21077;-78
2021/10/22 07:18:54;;;;;;;10.45;2.15;;;;;;;22.94;29.87;99377.53;1687750;83;21124;-76
2021/10/22 07:21:21;;;;;;;6.50;2.08;;;;;;;23.29;29.01;99374.48;1690062;83;21105;-76
2021/10/22 07:23:48;;;;;;;13.15;2.65;;;;;;;23.42;28.43;99382.11;1685513;85;21634;-77
2021/10/22 07:26:18;;;;;;;8.53;2.47;;;;;;;23.18;28.20;99385.48;1684780;85;21085;-75
2021/10/22 07:28:45;;;;;;;8.58;2.50;;;;;;;22.87;29.20;99381.84;1685442;85;21045;-78
2021/10/22 07:31:12;;;;;;;12.78;2.40;;;;;;;22.90;29.21;99384.71;1698886;83;21129;-79
2021/10/22 07:33:40;;;;;;;4.35;2.00;;;;;;;23.00;28.78;99380.12;1694682;83;21122;-76
2021/10/22 07:36:08;;;;;;;6.75;1.82;;;;;;;23.10;28.34;99392.98;1686160;83;21089;-77
2021/10/22 07:38:36;;;;;;;6.75;2.02;;;;;;;23.05;29.44;99383.17;1684608;85;21050;-77
2021/10/22 07:41:04;;;;;;;13.45;2.47;;;;;;;23.15;29.35;99385.80;1693091;83;21138;-76
2021/10/22 07:43:31;;;;;;;12.23;2.42;;;;;;;23.11;29.31;99394.66;1685441;83;21106;-77
2021/10/22 07:46:00;;;;;;;6.83;2.15;;;;;;;22.89;28.88;99399.11;1659746;85;21501;-74
2021/10/22 07:48:26;;;;;;;6.28;2.12;;;;;;;22.78;29.25;99401.05;1689013;83;21544;-77
2021/10/22 07:50:52;;;;;;;11.20;2.50;;;;;;;23.07;29.26;99395.12;1687681;84;21117;-77
2021/10/22 07:53:19;;;;;;;6.72;2.22;;;;;;;23.21;29.13;99399.45;1695781;84;21069;-78
2021/10/22 07:55:46;;;;;;;18.67;3.05;;;;;;;23.47;27.44;99395.94;1729054;82;21111;-76
2021/10/22 07:58:14;;;;;;;13.13;3.10;;;;;;;23.17;27.89;99405.29;1727950;82;21787;-78
2021/10/22 08:00:40;;;;;;;10.03;3.22;;;;;;;23.21;27.59;99400.80;1727821;82;21559;-76
2021/10/22 08:03:06;;;;;;;8.75;2.20;;;;;;;23.02;27.67;99407.66;1729256;81;21544;-75
2021/10/22 08:05:33;;;;;;;6.78;2.10;;;;;;;22.99;27.61;99405.30;1731842;82;21084;-75
2021/10/22 08:07:59;;;;;;;11.35;2.75;;;;;;;23.17;27.24;99406.13;1728237;80;21061;-76
2021/10/22 08:10:26;;;;;;;10.68;2.22;;;;;;;23.25;27.08;99411.55;1739718;80;21128;-76
2021/10/22 08:12:54;;;;;;;6.83;2.00;;;;;;;23.31;26.84;99411.95;1714113;82;21073;-78
2021/10/22 08:15:22;;;;;;;7.25;1.72;;;;;;;23.46;26.09;99416.56;1736147;80;21041;-76
2021/10/22 08:17:48;;;;;;;7.62;1.82;;;;;;;23.48;25.74;99409.70;1723663;82;21053;-76
2021/10/22 08:20:22;;;;;;;11.33;1.98;;;;;;;23.16;25.50;99411.14;1715146;81;21069;-76
2021/10/22 08:22:46;;;;;;;13.53;1.60;;;;;;;23.27;25.40;99418.62;1732664;82;21493;-76
2021/10/22 08:25:14;;;;;;;12.25;2.05;;;;;;;23.21;25.17;99419.59;1743273;80;21038;-77
2021/10/22 08:27:44;;;;;;;13.15;1.60;;;;;;;23.18;25.29;99429.80;1730107;82;21581;-74
2021/10/22 08:30:16;;;;;;;8.67;1.60;;;;;;;23.13;25.39;99432.94;1721003;82;21083;-76
2021/10/22 08:32:49;;;;;;;9.38;1.62;;;;;;;23.22;25.18;99427.98;1722164;82;21051;-77
2021/10/22 08:35:14;;;;;;;18.48;2.25;;;;;;;23.13;25.04;99426.73;1722467;82;21209;-76
2021/10/22 08:37:42;;;;;;;9.20;1.77;;;;;;;23.16;25.24;99423.22;1728697;81;21066;-76
2021/10/22 08:40:09;;;;;;;7.35;2.00;;;;;;;22.99;25.38;99432.14;1733187;80;21055;-76
2021/10/22 08:42:36;;;;;;;8.25;1.50;;;;;;;23.13;26.20;99430.77;1727786;82;21587;-78
2021/10/22 08:45:04;;;;;;;9.20;2.15;;;;;;;23.33;25.01;99431.41;1727986;82;21096;-77
2021/10/22 08:47:32;;;;;;;9.98;2.55;;;;;;;23.39;24.64;99438.35;1721975;82;21121;-75
2021/10/22 08:50:00;;;;;;;9.10;1.87;;;;;;;23.17;24.79;99438.36;1740482;81;21035;-75
2021/10/22 08:52:30;;;;;;;8.80;2.12;;;;;;;23.20;24.64;99432.66;1717936;81;21139;-76
2021/10/22 08:54:59;;;;;;;9.08;1.77;;;;;;;23.35;24.38;99437.48;1723742;82;21057;-76
2021/10/22 08:57:26;;;;;;;6.17;1.75;;;;;;;23.39;24.28;99437.01;1745712;82;20973;-79
2021/10/22 08:59:57;;;;;;;18.27;1.98;;;;;;;23.27;24.24;99437.42;1745665;80;21092;-77
2021/10/22 09:02:25;;;;;;;11.18;1.87;;;;;;;23.08;24.38;99448.68;1739616;81;21035;-74
2021/10/22 09:04:57;;;;;;;12.80;1.92;;;;;;;22.58;24.75;99439.23;1718242;83;21055;-75
2021/10/22 09:07:42;;;;;;;6.65;1.75;;;;;;;22.38;25.47;99443.89;1749875;80;21044;-75
2021/10/22 09:10:27;;;;;;;5.78;1.52;;;;;;;22.68;25.73;99437.83;1726951;81;21102;-76
2021/10/22 09:13:01;;;;;;;6.30;1.35;;;;;;;23.22;25.23;99429.33;1746026;80;21171;-76
2021/10/22 09:15:32;;;;;;;10.70;1.90;;;;;;;23.82;24.30;99434.49;1720864;82;21024;-78
2021/10/22 09:18:07;;;;;;;6.15;2.05;;;;;;;24.22;24.40;99435.70;1720859;82;21107;-78
2021/10/22 09:20:32;;;;;;;7.65;2.22;;;;;;;24.60;23.16;99438.91;1720506;82;21140;-77
2021/10/22 09:23:02;;;;;;;5.00;1.80;;;;;;;24.88;22.93;99438.13;1748197;80;21115;-76
2021/10/22 09:25:31;;;;;;;10.08;2.37;;;;;;;24.91;22.73;99438.65;1746494;80;21741;-76
2021/10/22 09:28:02;;;;;;;8.50;2.98;;;;;;;24.89;23.09;99427.20;1742719;80;21040;-78
2021/10/22 09:30:42;;;;;;;8.83;2.52;;;;;;;24.91;23.10;99444.03;1761383;80;21045;-78
2021/10/22 09:33:16;;;;;;;15.80;3.42;;;;;;;24.97;22.88;99453.80;1722695;81;21271;-78
2021/10/22 09:35:54;;;;;;;5.78;1.77;;;;;;;24.84;23.26;99457.80;1733312;82;21107;-74
2021/10/22 09:38:29;;;;;;;16.73;5.97;;;;;;;24.89;23.60;99449.22;1748462;80;21549;-77
2021/10/22 09:41:06;;;;;;;13.20;4.40;;;;;;;24.94;24.45;99452.28;1733795;80;21078;-77
2021/10/22 09:43:35;;;;;;;8.83;3.90;;;;;;;25.01;22.95;99449.77;1750583;80;21056;-77
2021/10/22 09:46:19;;;;;;;12.10;5.40;;;;;;;25.04;23.20;99453.47;1738621;80;21727;-78
2021/10/22 09:48:48;;;;;;;7.12;2.42;;;;;;;25.07;22.70;99453.13;1742779;79;21119;-78
2021/10/22 09:51:33;;;;;;;9.40;2.12;;;;;;;24.82;23.05;99449.55;1746981;79;21089;-79
2021/10/22 09:54:11;;;;;;;4.35;1.47;;;;;;;24.51;23.15;99447.97;1750481;79;21849;-79
2021/10/22 09:56:41;;;;;;;6.58;1.60;;;;;;;24.17;23.87;99450.14;1747290;79;21037;-76
2021/10/22 09:59:10;;;;;;;11.75;1.47;;;;;;;23.81;24.50;99451.61;1745027;79;21568;-78
2021/10/22 10:01:46;;;;;;;12.00;1.82;;;;;;;23.44;25.65;99448.62;1740859;79;21015;-76
2021/10/22 10:04:13;;;;;;;7.83;1.47;;;;;;;23.18;25.57;99448.59;1747807;79;21425;-77
2021/10/22 10:06:43;;;;;;;13.28;2.10;;;;;;;23.05;26.03;99455.68;1755416;79;21890;-77
2021/10/22 10:09:10;;;;;;;6.40;1.70;;;;;;;23.35;25.26;99446.88;1746808;81;21540;-77
2021/10/22 10:11:40;;;;;;;9.63;1.55;;;;;;;23.37;24.75;99451.59;1756128;79;21126;-77
2021/10/22 10:14:11;;;;;;;6.50;1.65;;;;;;;23.57;24.93;99447.73;1742063;79;21150;-77
2021/10/22 10:16:37;;;;;;;9.48;1.90;;;;;;;24.01;24.74;99450.39;1742991;79;21633;-77
2021/10/22 10:19:11;;;;;;;5.65;2.52;;;;;;;24.39;23.85;99463.03;1744919;79;21105;-75
2021/10/22 10:21:47;;;;;;;10.15;1.62;;;;;;;24.68;23.46;99455.91;1706681;82;21162;-76
2021/10/22 10:24:17;;;;;;;4.78;1.50;;;;;;;24.32;23.12;99457.95;1739775;79;21097;-77
2021/10/22 10:26:44;;;;;;;5.40;1.30;;;;;;;23.75;25.04;99471.08;1681303;83;21142;-76
2021/10/22 10:29:16;;;;;;;6.92;1.55;;;;;;;22.83;25.30;99470.38;1735568;79;21874;-75
2021/10/22 10:31:46;;;;;;;6.62;1.72;;;;;;;22.31;26.56;99470.94;1720325;81;21046;-78
2021/10/22 10:34:38;;;;;;;11.38;1.30;;;;;;;22.17;26.41;99470.05;1742654;79;21057;-75
2021/10/22 10:37:23;;;;;;;7.12;1.52;;;;;;;21.38;26.84;99473.88;1743429;79;21057;-76
2021/10/22 10:39:55;;;;;;;7.12;1.50;;;;;;;20.61;27.75;99479.98;1705858;79;21101;-79
2021/10/22 10:42:42;;;;;;;11.25;1.57;;;;;;;20.77;27.80;99479.46;1739435;79;21141;-78
2021/10/22 10:45:20;;;;;;;10.08;1.75;;;;;;;20.36;27.82;99482.62;1749399;79;21315;-78
2021/10/22 10:47:54;;;;;;;30.55;3.60;;;;;;;20.38;27.94;99472.63;1753119;79;21174;-75
2021/10/22 10:50:56;;;;;;;8.93;2.08;;;;;;;20.53;29.06;99477.97;1756607;80;21081;-77
2021/10/22 10:53:42;;;;;;;15.78;2.37;;;;;;;20.92;29.52;99483.44;1736337;80;22149;-76
2021/10/22 10:56:22;;;;;;;10.63;3.15;;;;;;;21.35;26.90;99483.55;1738922;80;21191;-76
2021/10/22 10:58:48;;;;;;;7.47;1.10;;;;;;;21.76;26.55;99473.48;1735711;80;21469;-77
2021/10/22 11:01:24;;;;;;;6.78;1.30;;;;;;;22.36;25.60;99479.41;1746976;80;20975;-76
2021/10/22 11:03:51;;;;;;;10.80;2.10;;;;;;;22.63;25.17;99477.70;1748441;80;21034;-77
2021/10/22 11:06:47;;;;;;;18.23;2.08;;;;;;;22.76;25.89;99472.82;1743479;80;21018;-76
2021/10/22 11:09:43;;;;;;;10.70;1.50;;;;;;;23.04;25.75;99469.61;1740633;81;21545;-76
2021/10/22 11:12:07;;;;;;;8.68;1.57;;;;;;;23.60;24.91;99473.45;1743453;80;21085;-75
2021/10/22 11:14:42;;;;;;;14.65;2.08;;;;;;;23.83;23.83;99465.74;1733549;80;21145;-77
2021/10/22 11:17:09;;;;;;;12.82;2.27;;;;;;;23.15;23.97;99464.52;1748512;80;21069;-76
2021/10/22 11:19:40;;;;;;;12.63;2.10;;;;;;;22.04;25.15;99465.51;1738917;80;21454;-76
2021/10/22 11:22:13;;;;;;;9.93;2.12;;;;;;;21.49;25.88;99477.78;1739212;80;21123;-78
2021/10/22 11:24:41;;;;;;;16.17;1.80;;;;;;;21.27;26.31;99476.70;1741326;80;21050;-76
2021/10/22 11:27:11;;;;;;;20.05;2.52;;;;;;;21.12;26.30;99502.56;1737797;80;21523;-76
2021/10/22 11:29:45;;;;;;;25.70;2.67;;;;;;;20.77;26.61;99480.80;1751064;80;21038;-75
2021/10/22 11:32:15;;;;;;;18.60;2.15;;;;;;;20.64;26.98;99495.28;1745121;80;21537;-75
2021/10/22 11:34:49;;;;;;;;;;;;;;;20.60;26.65;99485.00;1740350;80;21148;-77
2021/10/22 11:37:20;;;;;;;17.52;2.52;;;;;;;20.56;28.00;99491.56;1756989;80;20202;-78
2021/10/22 11:39:50;;;;;;;14.43;1.70;;;;;;;20.58;27.23;99507.86;1747595;80;21045;-77
2021/10/22 11:42:28;;;;;;;18.00;1.67;;;;;;;20.71;27.87;99496.43;1740228;80;21375;-77